Hlavní strana
METAR-TAF:

METAR-TAF

Letiště :

Letiště Tunošna

Jaroslavl, Rusko

zeměpisná šířka: 57-33-38N, zeměpisná délka: 040-09-27E, výška: 87 m

Aktuální stav počasí

Zpráva byla vytvořena před 16 minutami, v 01:30 UTC
Jihojihovýchodní vítr 4 kt
Teplota 15°C
Vlhkost vzduchu 100%
Tlak 1006 hPa
Viditelnost 10 km a více
Zataženo ve výšce 2500 ft

METAR: UUDL 130130Z 16002MPS 9999 OVC025 15/15 Q1006 R23/010060 NOSIG RMK QFE746

Čas: 04:46 (01:46 UTC)

Předpověď počasí

Zpráva byla vytvořena před 2 hodinami a 46 minutami, v 23:00 UTC
Předpověď platná od 13 v 00 UTC do 13 v 24 UTC
Jižní vítr 6 kt
Viditelnost 10 km a více
Oblačno až skoro zataženo ve výšce 4000 ft

TAF: UUDL 122300Z 1300/1324 18003MPS 9999 BKN040 TX23/1312Z TN12/1301Z

Stav a předpovědi počasí z více než 4 000 letišť (zprávy METAR a TAF).

Červené a žluté tečky na mapě představují dostupné meteorologické stanice.

Když kurzor umístíte na tečku, zobrazí se název stanice.

Pak kliknutím zobrazíte stav a předpověď počasí.

Chcete-li změnit mapu, kliknutím na zelené tlačítko se znaménkem +mapu přiblížíte, kliknutím na zelené tlačítko se znaménkem – mapu oddálíte a kliknutím na zelené šipky přejdete na sousední mapy.


METAR-TAF: